Time;durP1;ratioP1;P1;durP2;ratioP2;P2;SDS_P1;SDS_P2;PMS_P1;PMS_P2;Temp;Humidity;BMP_temperature;BMP_pressure;BME280_temperature;BME280_humidity;BME280_pressure;Samples;Min_cycle;Max_cycle;Signal;HPM_P1;HPM_P2
2023/03/08 00:00:11;;;;;;;7.30;3.95;;;-3275.20;97.70;;;;;;5032663;28;20036;-81
2023/03/08 00:02:36;;;;;;;10.85;3.88;;;-3275.20;97.70;;;;;;5034771;28;20505;-81
2023/03/08 00:05:02;;;;;;;8.73;4.07;;;-3275.10;97.60;;;;;;5034979;28;20029;-81
2023/03/08 00:07:28;;;;;;;11.00;3.90;;;-3275.00;97.60;;;;;;5034778;28;20025;-81
2023/03/08 00:09:53;;;;;;;9.85;4.18;;;-3275.00;97.70;;;;;;5033202;28;20037;-82
2023/03/08 00:12:21;;;;;;;10.50;4.55;;;-3275.10;97.80;;;;;;5016869;28;20108;-82
2023/03/08 00:14:47;;;;;;;12.30;4.30;;;-3275.00;97.80;;;;;;5032943;28;20028;-81
2023/03/08 00:17:14;;;;;;;8.77;4.47;;;-3275.00;97.80;;;;;;5037238;28;20111;-82
2023/03/08 00:19:39;;;;;;;9.13;4.75;;;-3275.10;98.10;;;;;;5045124;28;20025;-82
2023/03/08 00:22:04;;;;;;;7.30;3.92;;;-3275.10;98.10;;;;;;5029499;28;20109;-82
2023/03/08 00:24:30;;;;;;;9.43;4.20;;;-3275.10;98.10;;;;;;5041424;28;20041;-82
2023/03/08 00:26:56;;;;;;;7.97;4.00;;;-3275.00;98.00;;;;;;5004888;28;20142;-81
2023/03/08 00:29:21;;;;;;;11.18;5.28;;;-3275.00;98.00;;;;;;5039784;28;20057;-81
2023/03/08 00:31:47;;;;;;;8.93;4.10;;;-3275.00;98.00;;;;;;5038936;28;20025;-82
2023/03/08 00:34:13;;;;;;;12.77;4.93;;;-3275.00;98.20;;;;;;5041960;28;20029;-81
2023/03/08 00:36:38;;;;;;;16.00;5.82;;;-3275.10;98.30;;;;;;5034624;28;20069;-82
2023/03/08 00:39:04;;;;;;;10.15;5.10;;;-3275.10;98.10;;;;;;5028222;28;20390;-81
2023/03/08 00:41:30;;;;;;;8.40;4.55;;;-3275.00;98.20;;;;;;5032748;28;20033;-81
2023/03/08 00:43:55;;;;;;;8.35;4.97;;;-3275.10;98.20;;;;;;5017606;28;20025;-81
2023/03/08 00:46:21;;;;;;;6.90;3.88;;;-3275.00;98.20;;;;;;5032011;28;20026;-81
2023/03/08 00:48:46;;;;;;;11.27;4.53;;;-3275.00;98.20;;;;;;5046300;28;20104;-81
2023/03/08 00:51:14;;;;;;;12.13;4.80;;;-3275.00;98.20;;;;;;5026319;28;20080;-81
2023/03/08 00:53:39;;;;;;;13.93;5.95;;;-3275.00;98.20;;;;;;5037371;28;20030;-81
2023/03/08 00:56:05;;;;;;;10.85;4.88;;;-3275.00;98.30;;;;;;5027333;28;20025;-81
2023/03/08 00:58:31;;;;;;;9.95;4.90;;;-3275.10;98.30;;;;;;5028947;28;20032;-82
2023/03/08 01:00:58;;;;;;;9.93;5.25;;;-3275.10;98.20;;;;;;5023236;28;20030;-82
2023/03/08 01:03:24;;;;;;;11.15;5.35;;;-3275.00;98.20;;;;;;5041869;28;20030;-82
2023/03/08 01:05:53;;;;;;;12.35;5.43;;;-3275.10;98.40;;;;;;5037553;28;20033;-82
2023/03/08 01:08:20;;;;;;;10.55;5.32;;;-3275.20;98.40;;;;;;5032644;28;20082;-82
2023/03/08 01:10:57;;;;;;;14.68;6.15;;;-3275.30;98.40;;;;;;5037211;28;20451;-81
2023/03/08 01:13:24;;;;;;;9.88;5.47;;;-3275.30;98.30;;;;;;5026856;28;20041;-82
2023/03/08 01:15:50;;;;;;;15.23;5.28;;;-3275.30;98.30;;;;;;5034201;28;20021;-81
2023/03/08 01:18:15;;;;;;;10.07;5.68;;;-3275.30;98.30;;;;;;5045165;28;20080;-82
2023/03/08 01:20:41;;;;;;;12.05;6.25;;;-3275.30;98.20;;;;;;5037416;28;20043;-82
2023/03/08 01:23:07;;;;;;;10.10;5.40;;;-3275.30;98.20;;;;;;5015427;28;20034;-82
2023/03/08 01:25:33;;;;;;;10.80;5.68;;;-3275.20;98.10;;;;;;5035255;28;20033;-82
2023/03/08 01:27:58;;;;;;;10.38;5.32;;;-3275.20;98.20;;;;;;5043038;28;20042;-82
2023/03/08 01:30:24;;;;;;;14.20;6.20;;;-3275.30;98.30;;;;;;5025314;28;20366;-82
2023/03/08 01:32:49;;;;;;;11.63;5.03;;;-3275.20;98.30;;;;;;5033835;28;20425;-82
2023/03/08 01:35:15;;;;;;;11.20;5.43;;;-3275.30;98.30;;;;;;5034987;28;20040;-82
2023/03/08 01:37:40;;;;;;;17.17;6.15;;;-3275.40;98.40;;;;;;5027314;28;20030;-82
2023/03/08 01:40:06;;;;;;;16.10;6.15;;;-3275.50;98.30;;;;;;5032494;28;20034;-82
2023/03/08 01:42:32;;;;;;;13.15;5.70;;;-3275.50;98.30;;;;;;5018692;28;20104;-81
2023/03/08 01:45:04;;;;;;;10.18;5.85;;;-3275.60;98.30;;;;;;5032441;28;20037;-81
2023/03/08 01:47:32;;;;;;;12.82;6.18;;;-3275.60;98.30;;;;;;5029562;28;20561;-82
2023/03/08 01:50:09;;;;;;;16.55;6.82;;;-3275.70;98.30;;;;;;5037761;28;20634;-82
2023/03/08 01:52:47;;;;;;;13.23;6.30;;;-3275.70;98.30;;;;;;5031866;28;20033;-82
2023/03/08 01:55:14;;;;;;;13.90;6.95;;;-3275.80;98.20;;;;;;5040004;28;20021;-82
2023/03/08 01:57:48;;;;;;;17.92;7.07;;;-3275.80;98.10;;;;;;5032688;28;20104;-82
2023/03/08 02:00:21;;;;;;;15.70;7.30;;;-3275.80;98.20;;;;;;5019378;28;20045;-82
2023/03/08 02:02:51;;;;;;;20.20;8.00;;;-3275.80;98.10;;;;;;5027683;28;20022;-82
2023/03/08 02:05:17;;;;;;;20.85;9.82;;;-3275.90;98.10;;;;;;5027865;28;20124;-82
2023/03/08 02:07:43;;;;;;;31.60;12.98;;;-3275.90;98.20;;;;;;5032162;28;20037;-82
2023/03/08 02:10:10;;;;;;;37.05;14.20;;;-3275.90;98.20;;;;;;5011796;28;20025;-82
2023/03/08 02:12:36;;;;;;;30.38;11.68;;;-3276.00;98.20;;;;;;5015770;28;20028;-81
2023/03/08 02:15:04;;;;;;;37.05;14.13;;;-3276.00;98.10;;;;;;5032391;28;20136;-81
2023/03/08 02:17:30;;;;;;;28.23;13.27;;;-3276.00;98.10;;;;;;5010177;28;20480;-82
2023/03/08 02:20:30;;;;;;;31.33;13.82;;;-3276.00;98.10;;;;;;5032995;28;20024;-82
2023/03/08 02:23:19;;;;;;;24.15;12.55;;;-3276.10;98.10;;;;;;5040612;28;20068;-82
2023/03/08 02:26:11;;;;;;;19.30;10.88;;;-3276.20;98.10;;;;;;5029603;28;20029;-81
2023/03/08 02:28:37;;;;;;;23.30;11.68;;;-3276.20;98.10;;;;;;5023604;28;20094;-81
2023/03/08 02:31:02;;;;;;;31.23;13.30;;;-3276.20;98.00;;;;;;5010186;28;20021;-80
2023/03/08 02:33:30;;;;;;;26.65;12.68;;;-3276.20;98.00;;;;;;5030323;28;20075;-81
2023/03/08 02:35:55;;;;;;;22.30;12.18;;;-3276.30;97.90;;;;;;5031901;28;20026;-81
2023/03/08 02:38:21;;;;;;;27.30;13.50;;;-3276.30;97.90;;;;;;5029583;28;20056;-81
2023/03/08 02:40:50;;;;;;;30.77;13.85;;;-3276.30;97.80;;;;;;5036120;28;20083;-81
2023/03/08 02:43:16;;;;;;;31.60;14.00;;;-3276.30;97.70;;;;;;5035974;28;20484;-81
2023/03/08 02:45:41;;;;;;;26.17;13.02;;;-3276.30;97.70;;;;;;5034786;28;20375;-81
2023/03/08 02:48:07;;;;;;;23.10;13.07;;;-3276.30;97.70;;;;;;5029304;28;20029;-81
2023/03/08 02:50:35;;;;;;;21.92;12.52;;;-3276.30;97.70;;;;;;5026273;28;20037;-81
2023/03/08 02:53:00;;;;;;;24.58;11.65;;;-3276.30;97.70;;;;;;5011166;28;20029;-81
2023/03/08 02:55:26;;;;;;;25.25;11.70;;;-3276.30;97.60;;;;;;5032602;28;20036;-81
2023/03/08 02:57:51;;;;;;;20.33;11.55;;;-3276.30;97.60;;;;;;5027475;28;20033;-81
2023/03/08 03:00:17;;;;;;;19.98;11.10;;;-3276.30;97.60;;;;;;5026214;28;20026;-81
2023/03/08 03:02:43;;;;;;;20.60;11.52;;;-3276.30;97.60;;;;;;5031433;28;20584;-81
2023/03/08 03:05:12;;;;;;;18.73;10.30;;;-3276.30;97.50;;;;;;5040680;28;20030;-81
2023/03/08 03:07:40;;;;;;;19.23;9.70;;;-3276.30;97.50;;;;;;5037693;28;20454;-81
2023/03/08 03:10:08;;;;;;;18.65;10.07;;;-3276.30;97.50;;;;;;5012955;28;20033;-81
2023/03/08 03:12:33;;;;;;;12.88;8.65;;;-3276.30;97.40;;;;;;5032802;28;20446;-81
2023/03/08 03:15:01;;;;;;;12.05;7.95;;;-3276.30;97.40;;;;;;5042334;28;20024;-81
2023/03/08 03:17:27;;;;;;;16.00;8.48;;;-3276.30;97.50;;;;;;5031814;28;20040;-81
2023/03/08 03:19:52;;;;;;;14.13;8.27;;;-3276.30;97.40;;;;;;5036837;28;20404;-81
2023/03/08 03:22:18;;;;;;;14.52;7.85;;;-3276.30;97.50;;;;;;5030077;28;20376;-81
2023/03/08 03:24:43;;;;;;;16.63;8.13;;;-3276.30;97.40;;;;;;5038726;28;20084;-81
2023/03/08 03:27:09;;;;;;;15.23;8.05;;;-3276.30;97.40;;;;;;5044575;28;20083;-81
2023/03/08 03:29:36;;;;;;;12.50;6.97;;;-3276.30;97.40;;;;;;5038640;28;20049;-81
2023/03/08 03:32:02;;;;;;;13.13;6.97;;;-3276.30;97.30;;;;;;5038601;28;20033;-81
2023/03/08 03:34:28;;;;;;;13.70;6.65;;;-3276.30;97.40;;;;;;5010541;28;20382;-81
2023/03/08 03:36:54;;;;;;;13.60;6.82;;;-3276.30;97.40;;;;;;5031850;28;20092;-81
2023/03/08 03:39:19;;;;;;;15.43;6.10;;;-3276.20;97.40;;;;;;5033429;28;20029;-81
2023/03/08 03:41:45;;;;;;;10.43;6.18;;;-3276.20;97.50;;;;;;5034960;28;20029;-81
2023/03/08 03:44:10;;;;;;;9.73;5.15;;;-3276.20;97.50;;;;;;5035575;28;20037;-81
2023/03/08 03:46:37;;;;;;;10.88;5.85;;;-3276.20;97.60;;;;;;5027921;28;20450;-81
2023/03/08 03:49:02;;;;;;;13.52;6.55;;;-3276.20;97.60;;;;;;5036482;28;20078;-81
2023/03/08 03:51:28;;;;;;;7.55;4.65;;;-3276.20;97.60;;;;;;5035458;28;20438;-81
2023/03/08 03:53:53;;;;;;;11.27;5.85;;;-3276.10;97.60;;;;;;5028953;28;20467;-81
2023/03/08 03:56:21;;;;;;;8.48;5.55;;;-3276.10;97.70;;;;;;5034060;28;20366;-81
2023/03/08 03:58:48;;;;;;;12.13;6.43;;;-3276.10;97.70;;;;;;5010078;28;20044;-81
2023/03/08 04:01:16;;;;;;;10.52;5.85;;;-3276.20;97.80;;;;;;5028274;28;20026;-81
2023/03/08 04:03:42;;;;;;;14.95;7.70;;;-3276.10;97.70;;;;;;5032211;28;20168;-82
2023/03/08 04:06:17;;;;;;;13.27;6.72;;;-3276.20;97.70;;;;;;5039417;28;20119;-81
2023/03/08 04:08:42;;;;;;;14.85;7.28;;;-3276.20;97.70;;;;;;5033610;28;20018;-81
2023/03/08 04:11:09;;;;;;;13.32;7.80;;;-3276.20;97.80;;;;;;5028105;28;20455;-81
2023/03/08 04:13:36;;;;;;;15.75;7.38;;;-3276.10;97.70;;;;;;5031529;28;20041;-81
2023/03/08 04:16:12;;;;;;;11.93;7.53;;;-3276.20;97.80;;;;;;5036003;28;20049;-81
2023/03/08 04:18:37;;;;;;;14.20;7.32;;;-3276.10;97.80;;;;;;5035441;28;20071;-81
2023/03/08 04:21:03;;;;;;;11.63;6.82;;;-3276.20;97.90;;;;;;5033244;28;20017;-81
2023/03/08 04:23:29;;;;;;;11.55;7.07;;;-3276.20;97.80;;;;;;5033343;28;20057;-81
2023/03/08 04:25:54;;;;;;;11.85;7.43;;;-3276.20;97.80;;;;;;5030250;28;20057;-81
2023/03/08 04:28:20;;;;;;;16.38;7.95;;;-3276.20;97.80;;;;;;5035799;28;20021;-81
2023/03/08 04:30:45;;;;;;;13.10;7.55;;;-3276.20;97.80;;;;;;5033402;28;20112;-81
2023/03/08 04:33:11;;;;;;;13.75;7.82;;;-3276.20;97.80;;;;;;5029834;28;20474;-81
2023/03/08 04:35:36;;;;;;;11.93;7.50;;;-3276.10;97.80;;;;;;5032131;28;20029;-81
2023/03/08 04:38:02;;;;;;;13.48;8.27;;;-3276.20;97.90;;;;;;5025816;28;20044;-81
2023/03/08 04:40:28;;;;;;;13.60;7.40;;;-3276.20;97.90;;;;;;5033615;28;20037;-81
2023/03/08 04:42:54;;;;;;;14.35;7.22;;;-3276.20;97.90;;;;;;5032927;28;21216;-81
2023/03/08 04:45:19;;;;;;;10.93;6.80;;;-3276.20;97.90;;;;;;5030231;28;20030;-81
2023/03/08 04:47:45;;;;;;;13.00;7.63;;;-3276.20;97.90;;;;;;5035405;28;20088;-81
2023/03/08 04:50:11;;;;;;;16.73;7.65;;;-3276.20;97.90;;;;;;5034188;28;20462;-81
2023/03/08 04:52:36;;;;;;;13.30;7.65;;;-3276.30;97.90;;;;;;5035186;28;20065;-81
2023/03/08 04:55:02;;;;;;;13.20;7.55;;;-3276.20;97.80;;;;;;5034483;28;20373;-81
2023/03/08 04:57:27;;;;;;;13.93;7.53;;;-3276.20;97.70;;;;;;5032207;28;20438;-81
2023/03/08 04:59:53;;;;;;;12.57;7.30;;;-3276.20;97.80;;;;;;5032284;28;20025;-81
2023/03/08 05:02:21;;;;;;;13.30;7.45;;;-3276.20;97.70;;;;;;5029629;28;20133;-81
2023/03/08 05:04:46;;;;;;;12.45;7.10;;;-3276.20;97.60;;;;;;5022021;28;20068;-81
2023/03/08 05:07:12;;;;;;;15.55;7.68;;;-3276.30;97.60;;;;;;5030432;28;20029;-81
2023/03/08 05:09:37;;;;;;;14.52;7.63;;;-3276.30;97.60;;;;;;5038258;28;20071;-81
2023/03/08 05:12:03;;;;;;;15.80;7.93;;;-3276.20;97.50;;;;;;5032654;28;20026;-81
2023/03/08 05:14:29;;;;;;;11.05;7.05;;;-3276.20;97.50;;;;;;5031993;28;20095;-80
2023/03/08 05:16:56;;;;;;;13.35;7.25;;;-3276.30;97.50;;;;;;5011903;28;20433;-81
2023/03/08 05:19:21;;;;;;;13.52;7.55;;;-3276.30;97.50;;;;;;5030784;28;20033;-81
2023/03/08 05:21:47;;;;;;;14.35;7.80;;;-3276.30;97.50;;;;;;5032030;28;20040;-81
2023/03/08 05:24:12;;;;;;;13.02;7.68;;;-3276.30;97.40;;;;;;5033043;28;20045;-81
2023/03/08 05:26:38;;;;;;;17.88;7.43;;;-3276.30;97.40;;;;;;5024179;28;20052;-81
2023/03/08 05:29:05;;;;;;;16.35;8.32;;;-3276.30;97.40;;;;;;5018209;28;20053;-74
2023/03/08 05:31:31;;;;;;;17.27;8.25;;;-3276.30;97.40;;;;;;5029704;28;20037;-75
2023/03/08 05:33:57;;;;;;;12.43;7.07;;;-3276.30;97.40;;;;;;5016570;28;20041;-76
2023/03/08 05:36:22;;;;;;;14.50;7.60;;;-3276.30;97.40;;;;;;5034139;28;20025;-75
2023/03/08 05:38:53;;;;;;;17.20;7.90;;;-3276.30;97.40;;;;;;5026628;28;20188;-76
2023/03/08 05:41:18;;;;;;;11.85;5.35;;;-3276.30;97.40;;;;;;5029254;28;20037;-75
2023/03/08 05:43:44;;;;;;;13.38;8.00;;;-3276.40;97.40;;;;;;5031088;28;20577;-77
2023/03/08 05:46:13;;;;;;;14.98;7.75;;;-3276.40;97.30;;;;;;5022047;28;20053;-75
2023/03/08 05:48:39;;;;;;;18.65;8.45;;;-3276.40;97.20;;;;;;5033949;28;20366;-75
2023/03/08 05:51:07;;;;;;;13.45;8.20;;;-3276.40;97.30;;;;;;5029561;28;20022;-75
2023/03/08 05:53:32;;;;;;;15.02;7.97;;;-3276.40;97.30;;;;;;5030847;28;20381;-75
2023/03/08 05:56:08;;;;;;;12.77;7.10;;;-3276.40;97.30;;;;;;5031798;28;20029;-75
2023/03/08 05:58:34;;;;;;;13.05;7.43;;;-3276.40;97.30;;;;;;5026479;28;20026;-75
2023/03/08 06:01:11;;;;;;;16.63;8.07;;;-3276.40;97.20;;;;;;5021765;28;20059;-75
2023/03/08 06:03:37;;;;;;;13.98;8.18;;;-3276.40;97.10;;;;;;5028429;28;20021;-76
2023/03/08 06:06:02;;;;;;;13.05;7.03;;;-3276.40;96.80;;;;;;5040688;28;20036;-75
2023/03/08 06:08:28;;;;;;;14.00;7.28;;;-3276.40;96.80;;;;;;5034608;28;20033;-75
2023/03/08 06:10:53;;;;;;;14.70;8.20;;;-3276.50;96.80;;;;;;5033739;28;20036;-77
2023/03/08 06:13:19;;;;;;;18.15;7.63;;;-3276.40;96.70;;;;;;5033538;28;20028;-75
2023/03/08 06:15:44;;;;;;;15.35;8.25;;;-3276.40;96.50;;;;;;5027489;28;20029;-75
2023/03/08 06:18:10;;;;;;;16.30;8.60;;;-3276.40;96.40;;;;;;5027530;28;20031;-74
2023/03/08 06:20:35;;;;;;;18.60;9.30;;;-3276.50;96.40;;;;;;5026238;28;20365;-75
2023/03/08 06:23:01;;;;;;;14.57;7.82;;;-3276.40;96.30;;;;;;5025362;28;20077;-76
2023/03/08 06:25:26;;;;;;;13.00;7.78;;;-3276.50;96.30;;;;;;5006103;28;20046;-75
2023/03/08 06:27:52;;;;;;;11.93;7.47;;;-3276.50;96.30;;;;;;5028951;28;20029;-75
2023/03/08 06:30:17;;;;;;;15.30;7.93;;;-3276.50;96.40;;;;;;5005713;28;20049;-75
2023/03/08 06:32:43;;;;;;;14.60;7.35;;;-3276.50;96.30;;;;;;5022893;28;20537;-74
2023/03/08 06:35:08;;;;;;;12.45;7.47;;;-3276.50;96.30;;;;;;5024786;28;20486;-75
2023/03/08 06:37:35;;;;;;;17.35;7.97;;;-3276.50;96.30;;;;;;5028828;28;20105;-75
2023/03/08 06:40:00;;;;;;;14.82;7.75;;;-3276.50;96.30;;;;;;5025314;28;20025;-75
2023/03/08 06:42:26;;;;;;;12.63;7.38;;;-3276.50;96.30;;;;;;5026634;28;20037;-75
2023/03/08 06:44:52;;;;;;;12.13;7.75;;;-3276.60;96.30;;;;;;5022002;28;20035;-74
2023/03/08 06:47:17;;;;;;;14.35;7.18;;;-3276.60;96.40;;;;;;5027399;28;20029;-77
2023/03/08 06:49:43;;;;;;;13.35;7.80;;;-3276.60;96.20;;;;;;5029082;28;20029;-74
2023/03/08 06:52:08;;;;;;;14.82;7.88;;;-3276.60;96.10;;;;;;5022918;28;20432;-75
2023/03/08 06:54:33;;;;;;;17.13;8.52;;;-3276.60;96.20;;;;;;5011808;28;20036;-74
2023/03/08 06:56:59;;;;;;;12.95;7.72;;;-3276.60;96.20;;;;;;5016693;28;20037;-75
2023/03/08 06:59:24;;;;;;;17.92;8.95;;;-3276.70;96.20;;;;;;5019077;28;20032;-75
2023/03/08 07:01:50;;;;;;;13.40;7.15;;;-3276.70;96.00;;;;;;5029447;28;20033;-77
2023/03/08 07:04:17;;;;;;;13.13;8.07;;;-3276.70;95.90;;;;;;5037911;28;20036;-75
2023/03/08 07:06:43;;;;;;;14.40;7.65;;;0.00;96.00;;;;;;5045757;28;20116;-75
2023/03/08 07:09:08;;;;;;;13.85;7.32;;;0.00;95.90;;;;;;5041947;28;20028;-75
2023/03/08 07:11:34;;;;;;;14.80;7.85;;;0.00;95.60;;;;;;5030021;28;20028;-75
2023/03/08 07:13:59;;;;;;;15.80;8.25;;;0.00;95.50;;;;;;5004665;28;20067;-76
2023/03/08 07:16:25;;;;;;;11.95;7.07;;;0.00;95.60;;;;;;5030006;28;20021;-75
2023/03/08 07:18:51;;;;;;;17.27;7.65;;;0.00;95.50;;;;;;5031112;28;20059;-76
2023/03/08 07:21:16;;;;;;;13.30;7.55;;;0.10;95.40;;;;;;5029254;28;20476;-75
2023/03/08 07:23:42;;;;;;;12.93;7.10;;;0.10;95.40;;;;;;5029892;28;20038;-76
2023/03/08 07:26:09;;;;;;;11.75;7.40;;;0.00;95.00;;;;;;5031344;28;20033;-75
2023/03/08 07:28:35;;;;;;;12.27;6.88;;;0.00;95.00;;;;;;5026215;28;20055;-75
2023/03/08 07:31:01;;;;;;;11.20;6.75;;;0.10;95.10;;;;;;5028115;28;20022;-76
2023/03/08 07:33:26;;;;;;;13.15;6.47;;;0.20;95.00;;;;;;5031169;28;20052;-75
2023/03/08 07:35:52;;;;;;;13.00;6.43;;;0.10;94.60;;;;;;5026136;28;20045;-76
2023/03/08 07:38:18;;;;;;;12.35;7.53;;;0.10;94.60;;;;;;5032815;28;20029;-76
2023/03/08 07:40:44;;;;;;;13.10;7.32;;;0.20;94.40;;;;;;5026756;28;20115;-75
2023/03/08 07:43:09;;;;;;;12.05;6.50;;;0.30;94.40;;;;;;5031903;28;20099;-78
2023/03/08 07:45:38;;;;;;;14.90;7.32;;;0.30;94.10;;;;;;5025883;28;20676;-78
2023/03/08 07:48:04;;;;;;;13.57;7.28;;;0.40;94.10;;;;;;5030218;28;20038;-77
2023/03/08 07:50:30;;;;;;;14.20;7.13;;;0.40;94.00;;;;;;5033604;28;20033;-77
2023/03/08 07:52:55;;;;;;;12.70;6.68;;;0.50;94.00;;;;;;5031541;28;20096;-78
2023/03/08 07:55:21;;;;;;;15.45;7.80;;;0.50;93.70;;;;;;5032011;28;20034;-76
2023/03/08 07:57:46;;;;;;;16.30;7.50;;;0.50;93.70;;;;;;5028256;28;20056;-78
2023/03/08 08:00:12;;;;;;;17.38;6.90;;;0.50;93.60;;;;;;5034653;28;20064;-77
2023/03/08 08:02:38;;;;;;;13.20;7.18;;;0.50;93.30;;;;;;5034658;28;20362;-76
2023/03/08 08:05:04;;;;;;;11.02;6.70;;;0.60;93.40;;;;;;5041837;28;20088;-77
2023/03/08 08:07:29;;;;;;;12.73;6.85;;;0.60;93.10;;;;;;5025931;28;20083;-76
2023/03/08 08:09:55;;;;;;;11.50;6.55;;;0.50;93.20;;;;;;5030941;28;20037;-74
2023/03/08 08:12:22;;;;;;;12.50;7.20;;;0.50;93.30;;;;;;5034684;28;20099;-74
2023/03/08 08:14:50;;;;;;;11.32;7.55;;;0.60;93.50;;;;;;5037499;28;20079;-74
2023/03/08 08:17:17;;;;;;;11.90;6.65;;;0.70;93.40;;;;;;5044749;28;20037;-75
2023/03/08 08:19:43;;;;;;;10.20;5.85;;;0.70;93.30;;;;;;5041921;28;20037;-75
2023/03/08 08:22:08;;;;;;;14.02;6.68;;;0.70;93.00;;;;;;5047131;28;20028;-74
2023/03/08 08:24:34;;;;;;;10.30;6.38;;;0.70;92.70;;;;;;5039897;28;20036;-76
2023/03/08 08:26:59;;;;;;;9.65;5.75;;;0.80;93.00;;;;;;5044193;28;20021;-75
2023/03/08 08:29:25;;;;;;;12.40;6.07;;;1.00;92.90;;;;;;5045392;28;20049;-75
2023/03/08 08:31:53;;;;;;;11.05;6.35;;;0.90;92.30;;;;;;5027657;28;20033;-76
2023/03/08 08:34:19;;;;;;;9.75;5.93;;;1.00;92.40;;;;;;5036585;28;20037;-75
2023/03/08 08:36:45;;;;;;;8.55;5.47;;;1.30;92.60;;;;;;5017662;28;20132;-75
2023/03/08 08:39:11;;;;;;;11.10;5.50;;;1.30;91.90;;;;;;5033886;28;20048;-77
2023/03/08 08:41:37;;;;;;;9.82;5.93;;;1.30;91.80;;;;;;5028275;28;20391;-77
2023/03/08 08:44:03;;;;;;;12.48;5.57;;;1.40;91.90;;;;;;5032546;28;20064;-75
2023/03/08 08:46:29;;;;;;;8.82;5.57;;;1.40;91.70;;;;;;5033289;28;20029;-75
2023/03/08 08:48:56;;;;;;;10.45;5.40;;;1.40;91.70;;;;;;5036824;28;20030;-75
2023/03/08 08:51:21;;;;;;;8.50;4.43;;;1.60;91.80;;;;;;5043110;28;20045;-77
2023/03/08 08:53:47;;;;;;;8.88;4.78;;;1.60;90.50;;;;;;5031511;28;20041;-75
2023/03/08 08:56:18;;;;;;;7.88;4.60;;;1.50;90.40;;;;;;5037096;28;20035;-75
2023/03/08 08:58:45;;;;;;;;;;;1.60;90.50;;;;;;5034357;28;20038;-78
2023/03/08 09:01:23;;;;;;;8.13;3.95;;;1.50;90.00;;;;;;5027921;28;19948;-75
2023/03/08 09:03:49;;;;;;;7.45;4.35;;;1.60;90.40;;;;;;5035088;28;20029;-75
2023/03/08 09:06:19;;;;;;;9.30;4.30;;;1.70;90.00;;;;;;5038936;28;20420;-75
2023/03/08 09:08:47;;;;;;;12.18;4.45;;;1.90;89.90;;;;;;5024193;28;20034;-75
2023/03/08 09:11:13;;;;;;;9.27;4.63;;;2.10;89.40;;;;;;5019615;28;20428;-75
2023/03/08 09:13:40;;;;;;;9.15;4.57;;;2.20;89.00;;;;;;5015618;28;20033;-75
2023/03/08 09:16:06;;;;;;;5.70;3.67;;;2.00;87.70;;;;;;5032694;28;20018;-75
2023/03/08 09:18:31;;;;;;;7.05;3.70;;;1.80;88.20;;;;;;5040897;28;20038;-75
2023/03/08 09:20:59;;;;;;;8.95;4.30;;;1.80;88.40;;;;;;5038582;28;20385;-75
2023/03/08 09:23:25;;;;;;;6.60;4.43;;;1.90;88.50;;;;;;5035542;28;20095;-75
2023/03/08 09:25:57;;;;;;;7.88;4.38;;;1.90;87.70;;;;;;5030479;28;20037;-75
2023/03/08 09:28:23;;;;;;;11.40;7.30;;;1.80;87.80;;;;;;5029821;28;20063;-75
2023/03/08 09:30:49;;;;;;;7.60;4.80;;;2.00;88.40;;;;;;5032860;28;20100;-76
2023/03/08 09:33:14;;;;;;;9.85;6.30;;;2.20;88.20;;;;;;5041542;28;20045;-75
2023/03/08 09:35:40;;;;;;;9.95;5.53;;;2.30;87.40;;;;;;5038499;28;20033;-75
2023/03/08 09:38:05;;;;;;;7.18;4.22;;;2.50;87.40;;;;;;5033103;28;20108;-76
2023/03/08 09:40:47;;;;;;;7.20;3.60;;;2.50;86.50;;;;;;5036406;28;20045;-77
2023/03/08 09:43:25;;;;;;;6.55;3.53;;;2.30;85.60;;;;;;5028457;28;20533;-75
2023/03/08 09:45:52;;;;;;;8.60;4.20;;;2.40;86.50;;;;;;5031975;28;20060;-80
2023/03/08 09:48:22;;;;;;;8.80;4.25;;;2.40;86.30;;;;;;5026111;28;20026;-78
2023/03/08 09:50:52;;;;;;;7.50;4.53;;;2.60;86.90;;;;;;5033683;28;20028;-75
2023/03/08 09:53:41;;;;;;;8.77;5.13;;;2.50;85.80;;;;;;5035105;28;20365;-77
2023/03/08 09:56:23;;;;;;;8.52;4.63;;;2.60;85.50;;;;;;5029123;28;20057;-77
2023/03/08 09:59:04;;;;;;;10.07;5.00;;;2.60;86.50;;;;;;5033633;28;20025;-79
2023/03/08 10:01:55;;;;;;;7.05;4.53;;;2.80;86.10;;;;;;5037273;28;20095;-79
2023/03/08 10:04:39;;;;;;;7.50;4.33;;;2.40;85.50;;;;;;5031314;28;20454;-79
2023/03/08 10:07:18;;;;;;;10.43;4.30;;;2.70;86.10;;;;;;5013302;28;20284;-78
2023/03/08 10:09:57;;;;;;;9.75;4.03;;;2.80;84.90;;;;;;5033636;28;20116;-78
2023/03/08 10:12:33;;;;;;;7.43;4.00;;;2.80;84.60;;;;;;5031010;28;20048;-78
2023/03/08 10:15:07;;;;;;;7.90;4.05;;;2.90;84.60;;;;;;5036155;28;20040;-79
2023/03/08 10:17:57;;;;;;;8.00;3.92;;;3.30;84.20;;;;;;5029246;28;20390;-78
2023/03/08 10:20:26;;;;;;;15.32;3.83;;;3.20;82.20;;;;;;5036086;28;20021;-78
2023/03/08 10:23:17;;;;;;;9.73;3.95;;;3.20;81.80;;;;;;5034538;28;20024;-78
2023/03/08 10:25:44;;;;;;;8.93;3.85;;;3.10;82.50;;;;;;5031428;28;20040;-78
2023/03/08 10:28:21;;;;;;;6.57;3.55;;;3.10;83.30;;;;;;5035626;28;20390;-78
2023/03/08 10:30:50;;;;;;;7.72;3.70;;;3.10;82.90;;;;;;5031012;28;20030;-78
2023/03/08 10:33:19;;;;;;;7.65;3.95;;;3.10;82.60;;;;;;5029884;28;21955;-78
2023/03/08 10:36:01;;;;;;;9.63;3.90;;;3.00;82.00;;;;;;5041348;28;20036;-78
2023/03/08 10:38:31;;;;;;;6.38;3.80;;;2.90;83.00;;;;;;5029115;28;20032;-78
2023/03/08 10:41:08;;;;;;;7.65;3.60;;;2.90;83.40;;;;;;5051753;28;20033;-78
2023/03/08 10:43:40;;;;;;;7.82;3.50;;;2.60;83.60;;;;;;5037830;28;20363;-78
2023/03/08 10:46:13;;;;;;;8.65;3.65;;;2.60;84.10;;;;;;5034256;28;20029;-78
2023/03/08 10:48:38;;;;;;;6.10;3.60;;;2.60;83.50;;;;;;5012692;28;20033;-77
2023/03/08 10:51:14;;;;;;;6.80;4.05;;;2.70;83.70;;;;;;5037579;28;20036;-77
2023/03/08 10:53:39;;;;;;;11.20;3.92;;;2.90;83.60;;;;;;5041712;28;20040;-77
2023/03/08 10:56:22;;;;;;;7.78;3.35;;;3.00;82.60;;;;;;5040765;28;20112;-78
2023/03/08 10:58:48;;;;;;;6.95;3.40;;;3.20;82.70;;;;;;5046072;28;20114;-79
2023/03/08 11:01:28;;;;;;;7.88;4.18;;;3.10;81.30;;;;;;5034854;28;20482;-78
2023/03/08 11:04:22;;;;;;;9.23;3.58;;;3.30;82.30;;;;;;5033755;28;20037;-79
2023/03/08 11:06:48;;;;;;;8.52;4.53;;;3.20;81.40;;;;;;5008161;28;20034;-78
2023/03/08 11:09:35;;;;;;;7.35;3.67;;;3.60;82.80;;;;;;5030419;28;20021;-78
2023/03/08 11:12:01;;;;;;;7.38;3.60;;;3.30;80.20;;;;;;5028477;28;20374;-80
2023/03/08 11:14:28;;;;;;;7.57;3.67;;;3.50;81.10;;;;;;5031484;28;20080;-78
2023/03/08 11:17:06;;;;;;;7.22;3.38;;;3.40;80.90;;;;;;5030925;28;20029;-78
2023/03/08 11:20:09;;;;;;;7.10;3.53;;;3.10;80.80;;;;;;5024430;28;20079;-78
2023/03/08 11:23:13;;;;;;;7.13;3.42;;;3.30;80.40;;;;;;5035687;28;20025;-79
2023/03/08 11:25:50;;;;;;;8.57;4.30;;;3.50;81.40;;;;;;5024724;28;20030;-78
2023/03/08 11:28:30;;;;;;;5.95;3.60;;;3.80;81.40;;;;;;5028698;28;20417;-78
2023/03/08 11:31:13;;;;;;;10.77;5.43;;;3.90;80.20;;;;;;5019566;28;20022;-78
2023/03/08 11:33:42;;;;;;;10.18;5.53;;;4.00;79.60;;;;;;5021517;28;20048;-76
2023/03/08 11:36:35;;;;;;;10.40;5.20;;;4.10;79.80;;;;;;5033924;28;20040;-78
2023/03/08 11:39:19;;;;;;;8.18;4.45;;;4.20;79.00;;;;;;5030881;28;20467;-76
2023/03/08 11:41:51;;;;;;;9.52;5.38;;;4.20;78.90;;;;;;5033760;28;20497;-76
2023/03/08 11:44:37;;;;;;;8.07;4.45;;;4.40;78.40;;;;;;5023504;28;20029;-77
2023/03/08 11:47:37;;;;;;;10.07;4.40;;;4.50;77.00;;;;;;5032078;28;20031;-77
2023/03/08 11:50:21;;;;;;;7.95;4.53;;;4.00;76.50;;;;;;5026606;28;20026;-77
2023/03/08 11:53:11;;;;;;;8.60;4.03;;;4.20;77.60;;;;;;5051594;28;20033;-77
2023/03/08 11:55:51;;;;;;;9.27;4.50;;;4.00;77.10;;;;;;5024767;28;20025;-76
2023/03/08 11:58:42;;;;;;;9.98;3.80;;;4.10;78.00;;;;;;5019157;28;20034;-77
2023/03/08 12:01:20;;;;;;;7.63;3.90;;;4.10;78.50;;;;;;5030300;28;20043;-76
2023/03/08 12:03:51;;;;;;;7.85;3.50;;;3.90;76.70;;;;;;5028661;28;20038;-77
2023/03/08 12:06:28;;;;;;;7.47;3.58;;;4.10;77.10;;;;;;5041197;28;20021;-76
2023/03/08 12:09:15;;;;;;;7.95;3.05;;;4.10;77.00;;;;;;5030487;28;20037;-77
2023/03/08 12:11:46;;;;;;;5.25;2.90;;;4.30;76.40;;;;;;5048593;28;20040;-76
2023/03/08 12:14:26;;;;;;;4.88;2.97;;;4.20;75.70;;;;;;5027498;28;20029;-77
2023/03/08 12:17:09;;;;;;;6.32;2.92;;;4.70;75.10;;;;;;5038002;28;20030;-77
2023/03/08 12:19:46;;;;;;;6.65;3.15;;;5.10;75.00;;;;;;5031038;28;20095;-77
2023/03/08 12:22:53;;;;;;;5.93;2.70;;;5.10;73.50;;;;;;5017620;28;20030;-79
2023/03/08 12:25:25;;;;;;;5.47;2.70;;;5.00;72.20;;;;;;5016345;28;20041;-79
2023/03/08 12:27:58;;;;;;;7.72;3.35;;;5.60;70.70;;;;;;5025353;28;20500;-79
2023/03/08 12:30:57;;;;;;;5.93;2.70;;;5.60;72.30;;;;;;5035556;28;20037;-79
2023/03/08 12:33:25;;;;;;;5.13;2.80;;;5.50;69.70;;;;;;5035400;28;20021;-79
2023/03/08 12:35:56;;;;;;;4.93;2.83;;;5.80;69.20;;;;;;5034797;28;20029;-77